首页
METAR-TAF:

METAR-TAF

机场 :

图诺什纳机场

雅罗斯拉夫尔, 俄罗斯

纬度: 57-33-38N, 经度: 040-09-27E, 海拔: 87米

当前天气观测

该预报发布于29分钟前的21:30 UTC
风速4节,风向东转东南
温度 1°C
湿度 100%
气压 992 hPa
能見度: 7000
阴天层高于600英尺
小毛毛雨

METAR: UUDL 272130Z 11002MPS 7000 -DZ OVC006 01/01 Q0992 R23/650549 NOSIG RMK QFE736

时间: 00:59 (21:59 UTC)

预报

该预报发布于1小时和59分钟前的20:00 UTC
预报有效从27日的 21点(UTC)到 28日的 21点(UTC)
风速6节,风向
能見度: 6000
阴天层高于500英尺
短暂存在
从 27日的 21点(UTC)到 28日的 03点(UTC)
能見度: 2100
小雨, 雪
从 28日的 0300点(UTC)
风速6节,风向西转西南
能見度: 8000
阴天层高于1100英尺

TAF: UUDL 272000Z 2721/2821 09003MPS 6000 OVC005 TX02/2812Z TN00/2806Z TEMPO 2721/2803 2100 -RASN FM280300 24003MPS 8000 OVC011

超过4000个机场的气象观测和天气预报(METAR&TAF报告)。

可查询的气象台以黄色和红色小点在地图上表示。

将鼠标移到小点上方,可查看气象台名称。

然后点击查看天气观测和预报。

如需切换地图:点击带黑十字的绿色按钮放大地图;点击带横线的绿色按钮缩小地图;或者点击绿色箭头查看邻近地区的地图。


METAR-TAF: